Time;durP1;ratioP1;P1;durP2;ratioP2;P2;SDS_P1;SDS_P2;PMS_P1;PMS_P2;Temp;Humidity;BMP_temperature;BMP_pressure;BME280_temperature;BME280_humidity;BME280_pressure;Samples;Min_cycle;Max_cycle;Signal;HPM_P1;HPM_P2
2021/06/27 00:00:23;;;;;;;4.55;2.85;;;;;;;;;;5086318;28;20115;-48
2021/06/27 00:02:48;;;;;;;4.68;2.53;;;;;;;;;;5087514;28;20028;-48
2021/06/27 00:05:16;;;;;;;5.75;2.92;;;;;;;;;;5085201;28;20039;-50
2021/06/27 00:07:42;;;;;;;2.80;2.00;;;;;;;;;;5078272;28;20020;-48
2021/06/27 00:10:10;;;;;;;4.53;2.80;;;;;;;;;;5091858;28;20035;-48
2021/06/27 00:12:36;;;;;;;3.72;2.85;;;;;;;;;;5092310;28;20037;-48
2021/06/27 00:15:03;;;;;;;3.88;2.22;;;;;;;;;;5065530;28;20476;-48
2021/06/27 00:17:29;;;;;;;5.43;2.70;;;;;;;;;;5081016;28;20119;-49
2021/06/27 00:19:55;;;;;;;4.07;2.72;;;;;;;;;;5082009;28;20104;-49
2021/06/27 00:22:21;;;;;;;5.20;2.60;;;;;;;;;;5085201;28;20042;-48
2021/06/27 00:24:47;;;;;;;3.47;2.38;;;;;;;;;;5087055;28;20444;-48
2021/06/27 00:27:13;;;;;;;3.80;2.50;;;;;;;;;;5089321;28;20115;-50
2021/06/27 00:29:39;;;;;;;5.70;3.22;;;;;;;;;;5081201;28;20055;-48
2021/06/27 00:32:05;;;;;;;3.10;2.55;;;;;;;;;;5085828;28;20079;-48
2021/06/27 00:34:32;;;;;;;3.42;2.67;;;;;;;;;;5088115;28;20050;-48
2021/06/27 00:36:58;;;;;;;4.47;2.70;;;;;;;;;;5084493;28;20032;-48
2021/06/27 00:39:24;;;;;;;3.63;2.58;;;;;;;;;;5091631;28;20028;-49
2021/06/27 00:41:50;;;;;;;3.25;2.50;;;;;;;;;;5089683;28;20024;-49
2021/06/27 00:44:21;;;;;;;3.13;2.45;;;;;;;;;;5090434;28;20024;-48
2021/06/27 00:46:51;;;;;;;3.55;2.60;;;;;;;;;;5090467;28;20020;-48
2021/06/27 00:49:17;;;;;;;2.88;2.50;;;;;;;;;;5085411;28;20069;-48
2021/06/27 00:51:43;;;;;;;3.42;2.80;;;;;;;;;;5078610;28;20031;-48
2021/06/27 00:54:09;;;;;;;4.03;3.08;;;;;;;;;;5090007;28;20032;-48
2021/06/27 00:56:35;;;;;;;3.08;2.55;;;;;;;;;;5088497;28;20053;-48
2021/06/27 00:59:01;;;;;;;4.53;2.90;;;;;;;;;;5088936;28;20028;-48
2021/06/27 01:01:27;;;;;;;4.10;2.67;;;;;;;;;;5091053;28;20103;-50
2021/06/27 01:03:53;;;;;;;3.80;2.75;;;;;;;;;;5086471;28;20437;-50
2021/06/27 01:06:19;;;;;;;5.50;2.85;;;;;;;;;;5078663;28;20025;-48
2021/06/27 01:08:45;;;;;;;3.50;2.70;;;;;;;;;;5079679;28;20041;-48
2021/06/27 01:11:11;;;;;;;3.63;2.50;;;;;;;;;;5087141;28;20051;-48
2021/06/27 01:13:37;;;;;;;3.75;2.65;;;;;;;;;;5091565;28;20078;-48
2021/06/27 01:16:03;;;;;;;3.13;2.40;;;;;;;;;;5081753;28;20032;-48
2021/06/27 01:18:29;;;;;;;6.18;2.90;;;;;;;;;;5086360;28;20029;-49
2021/06/27 01:20:55;;;;;;;3.85;3.15;;;;;;;;;;5088581;28;20051;-50
2021/06/27 01:23:21;;;;;;;4.65;2.60;;;;;;;;;;5094200;28;20020;-48
2021/06/27 01:25:49;;;;;;;4.32;3.15;;;;;;;;;;5089031;28;20039;-48
2021/06/27 01:28:16;;;;;;;6.57;3.08;;;;;;;;;;5093397;28;20106;-49
2021/06/27 01:30:43;;;;;;;3.25;2.67;;;;;;;;;;5089310;28;20104;-48
2021/06/27 01:33:10;;;;;;;6.25;3.20;;;;;;;;;;5092771;28;20035;-49
2021/06/27 01:35:36;;;;;;;5.22;3.17;;;;;;;;;;5082398;28;20025;-49
2021/06/27 01:38:03;;;;;;;4.55;3.08;;;;;;;;;;5093478;28;20115;-49
2021/06/27 01:40:30;;;;;;;4.32;2.90;;;;;;;;;;5091081;28;20073;-48
2021/06/27 01:43:10;;;;;;;5.95;3.33;;;;;;;;;;5094034;28;20028;-50
2021/06/27 01:45:38;;;;;;;5.28;2.75;;;;;;;;;;5091504;28;20028;-48
2021/06/27 01:48:06;;;;;;;4.18;2.78;;;;;;;;;;5091682;28;20395;-49
2021/06/27 01:50:32;;;;;;;4.35;3.00;;;;;;;;;;5083417;28;20031;-48
2021/06/27 01:52:59;;;;;;;5.65;3.28;;;;;;;;;;5082563;28;20090;-48
2021/06/27 01:55:25;;;;;;;4.75;3.33;;;;;;;;;;5092690;28;20442;-49
2021/06/27 01:57:52;;;;;;;4.07;2.70;;;;;;;;;;5093307;28;20040;-48
2021/06/27 02:00:18;;;;;;;4.57;3.20;;;;;;;;;;5090015;28;20036;-48
2021/06/27 02:02:44;;;;;;;3.78;2.85;;;;;;;;;;5089533;28;20443;-51
2021/06/27 02:05:10;;;;;;;3.45;3.10;;;;;;;;;;5093254;28;20028;-48
2021/06/27 02:07:37;;;;;;;5.75;3.05;;;;;;;;;;5093891;28;20024;-48
2021/06/27 02:10:06;;;;;;;3.70;2.90;;;;;;;;;;5089447;28;20024;-48
2021/06/27 02:12:32;;;;;;;4.07;3.03;;;;;;;;;;5089292;28;20491;-48
2021/06/27 02:14:58;;;;;;;5.00;3.15;;;;;;;;;;5078731;28;20801;-49
2021/06/27 02:17:24;;;;;;;3.85;3.10;;;;;;;;;;5088837;28;20067;-50
2021/06/27 02:19:52;;;;;;;4.40;3.20;;;;;;;;;;5089677;28;20065;-49
2021/06/27 02:22:18;;;;;;;5.63;3.35;;;;;;;;;;5090527;28;20028;-49
2021/06/27 02:24:44;;;;;;;5.97;3.42;;;;;;;;;;5088108;28;20040;-50
2021/06/27 02:27:10;;;;;;;4.00;3.17;;;;;;;;;;5088127;28;20480;-49
2021/06/27 02:29:36;;;;;;;4.95;3.78;;;;;;;;;;5083994;28;20032;-48
2021/06/27 02:32:04;;;;;;;4.47;3.35;;;;;;;;;;5085763;28;20141;-49
2021/06/27 02:34:30;;;;;;;5.07;3.70;;;;;;;;;;5087715;28;20020;-48
2021/06/27 02:36:56;;;;;;;5.72;3.72;;;;;;;;;;5089233;28;20043;-48
2021/06/27 02:39:22;;;;;;;4.60;3.58;;;;;;;;;;5086483;28;20524;-48
2021/06/27 02:41:48;;;;;;;5.03;3.20;;;;;;;;;;5094057;28;20028;-48
2021/06/27 02:44:14;;;;;;;4.75;3.22;;;;;;;;;;5086465;28;20432;-48
2021/06/27 02:46:41;;;;;;;4.70;3.47;;;;;;;;;;5092699;28;20077;-49
2021/06/27 02:49:07;;;;;;;4.75;3.25;;;;;;;;;;5080710;28;20090;-48
2021/06/27 02:51:34;;;;;;;5.63;3.30;;;;;;;;;;5084432;28;20036;-50
2021/06/27 02:54:00;;;;;;;3.38;2.72;;;;;;;;;;5090691;28;20432;-48
2021/06/27 02:56:26;;;;;;;3.47;2.70;;;;;;;;;;5084829;28;20020;-52
2021/06/27 02:58:52;;;;;;;4.15;3.35;;;;;;;;;;5092289;28;20105;-48
2021/06/27 03:01:19;;;;;;;5.72;3.22;;;;;;;;;;5086111;28;20071;-48
2021/06/27 03:03:46;;;;;;;4.30;3.15;;;;;;;;;;5089880;28;20384;-48
2021/06/27 03:06:12;;;;;;;4.63;3.25;;;;;;;;;;5091228;28;20365;-48
2021/06/27 03:08:38;;;;;;;4.38;3.75;;;;;;;;;;5092875;28;20121;-50
2021/06/27 03:11:05;;;;;;;4.07;3.25;;;;;;;;;;5088962;28;20036;-50
2021/06/27 03:13:33;;;;;;;8.10;3.50;;;;;;;;;;5087307;28;20146;-49
2021/06/27 03:15:59;;;;;;;3.72;3.30;;;;;;;;;;5083128;28;20035;-48
2021/06/27 03:18:25;;;;;;;4.63;3.33;;;;;;;;;;5088052;28;20103;-50
2021/06/27 03:20:51;;;;;;;5.00;3.88;;;;;;;;;;5090108;28;20476;-48
2021/06/27 03:23:17;;;;;;;4.72;3.60;;;;;;;;;;5089664;28;20162;-48
2021/06/27 03:25:43;;;;;;;3.70;3.05;;;;;;;;;;5088559;28;20134;-51
2021/06/27 03:28:09;;;;;;;4.07;3.08;;;;;;;;;;5092446;28;20659;-52
2021/06/27 03:30:35;;;;;;;4.45;3.33;;;;;;;;;;5080099;28;20131;-50
2021/06/27 03:33:01;;;;;;;4.50;3.30;;;;;;;;;;5083926;28;20032;-48
2021/06/27 03:35:27;;;;;;;4.75;3.45;;;;;;;;;;5085320;28;20039;-48
2021/06/27 03:40:25;;;;;;;4.95;4.03;;;;;;;;;;5086852;28;20036;-50
2021/06/27 03:42:52;;;;;;;4.15;3.28;;;;;;;;;;5090975;28;20051;-49
2021/06/27 03:45:18;;;;;;;4.25;3.08;;;;;;;;;;5090769;28;20028;-48
2021/06/27 03:47:45;;;;;;;4.75;3.55;;;;;;;;;;5091493;28;20515;-48
2021/06/27 03:50:11;;;;;;;5.32;3.75;;;;;;;;;;5082134;28;20153;-48
2021/06/27 03:52:37;;;;;;;4.80;3.35;;;;;;;;;;5085925;28;20172;-48
2021/06/27 03:55:05;;;;;;;4.22;3.72;;;;;;;;;;5083547;28;20028;-49
2021/06/27 03:57:30;;;;;;;5.85;3.80;;;;;;;;;;5086384;28;20111;-48
2021/06/27 03:59:56;;;;;;;5.45;3.63;;;;;;;;;;5081615;28;20127;-48
2021/06/27 04:02:22;;;;;;;6.50;4.05;;;;;;;;;;5081862;28;20028;-49
2021/06/27 04:04:48;;;;;;;7.65;3.78;;;;;;;;;;5073391;28;20068;-50
2021/06/27 04:07:14;;;;;;;4.35;3.30;;;;;;;;;;5090933;28;20372;-49
2021/06/27 04:09:40;;;;;;;5.70;3.40;;;;;;;;;;5074227;28;20060;-48
2021/06/27 04:12:07;;;;;;;6.72;3.40;;;;;;;;;;5092086;28;20051;-48
2021/06/27 04:14:33;;;;;;;4.65;3.40;;;;;;;;;;5089284;28;20032;-49
2021/06/27 04:16:59;;;;;;;4.95;3.90;;;;;;;;;;5086512;28;20028;-49
2021/06/27 04:19:25;;;;;;;5.60;3.75;;;;;;;;;;5091334;28;20024;-49
2021/06/27 04:21:53;;;;;;;7.68;4.13;;;;;;;;;;5091060;28;20016;-49
2021/06/27 04:24:19;;;;;;;8.52;3.90;;;;;;;;;;5087780;28;20059;-49
2021/06/27 04:26:45;;;;;;;5.68;4.68;;;;;;;;;;5091163;28;20368;-50
2021/06/27 04:29:13;;;;;;;6.47;4.30;;;;;;;;;;5091421;28;20415;-48
2021/06/27 04:31:40;;;;;;;4.03;3.40;;;;;;;;;;5091029;28;20048;-51
2021/06/27 04:34:06;;;;;;;6.57;4.13;;;;;;;;;;5081381;28;20067;-48
2021/06/27 04:36:32;;;;;;;5.03;3.67;;;;;;;;;;5085118;28;20452;-49
2021/06/27 04:38:58;;;;;;;5.63;3.65;;;;;;;;;;5091073;28;20075;-48
2021/06/27 04:41:24;;;;;;;9.13;3.45;;;;;;;;;;5091861;28;20477;-48
2021/06/27 04:43:50;;;;;;;4.78;3.70;;;;;;;;;;5084910;28;20024;-48
2021/06/27 04:46:17;;;;;;;5.57;3.53;;;;;;;;;;5085512;28;20029;-49
2021/06/27 04:48:43;;;;;;;6.07;4.25;;;;;;;;;;5089750;28;20430;-49
2021/06/27 04:51:09;;;;;;;5.47;3.83;;;;;;;;;;5088362;28;20032;-49
2021/06/27 04:53:35;;;;;;;4.38;3.72;;;;;;;;;;5087951;28;20502;-48
2021/06/27 04:56:01;;;;;;;4.45;3.60;;;;;;;;;;5092858;28;20119;-50
2021/06/27 04:58:27;;;;;;;5.55;3.50;;;;;;;;;;5091301;28;20495;-49
2021/06/27 05:00:53;;;;;;;6.03;3.97;;;;;;;;;;5093419;28;20024;-49
2021/06/27 05:03:19;;;;;;;4.72;3.67;;;;;;;;;;5092516;28;20106;-48
2021/06/27 05:05:45;;;;;;;6.35;4.10;;;;;;;;;;5095637;28;20020;-49
2021/06/27 05:08:11;;;;;;;6.00;4.15;;;;;;;;;;5093516;28;20039;-50
2021/06/27 05:10:37;;;;;;;5.50;4.18;;;;;;;;;;5095863;28;20671;-49
2021/06/27 05:13:03;;;;;;;5.82;3.88;;;;;;;;;;5094896;28;20028;-49
2021/06/27 05:15:29;;;;;;;8.57;3.92;;;;;;;;;;5092637;28;20105;-49
2021/06/27 05:17:55;;;;;;;6.80;3.85;;;;;;;;;;5093690;28;20040;-49
2021/06/27 05:20:21;;;;;;;9.77;4.50;;;;;;;;;;5095743;28;20066;-49
2021/06/27 05:22:47;;;;;;;8.80;4.18;;;;;;;;;;5086534;28;20542;-50
2021/06/27 05:25:14;;;;;;;7.80;3.90;;;;;;;;;;5085336;28;20063;-51
2021/06/27 05:27:40;;;;;;;9.13;4.15;;;;;;;;;;5091813;28;20022;-53
2021/06/27 05:30:06;;;;;;;7.30;4.28;;;;;;;;;;5083894;28;20024;-48
2021/06/27 05:32:32;;;;;;;8.13;4.63;;;;;;;;;;5092128;28;20067;-51
2021/06/27 05:34:58;;;;;;;7.25;4.00;;;;;;;;;;5089286;28;20048;-49
2021/06/27 05:37:24;;;;;;;7.32;3.88;;;;;;;;;;5085855;28;20032;-49
2021/06/27 05:39:50;;;;;;;6.18;3.63;;;;;;;;;;5092856;28;20032;-50
2021/06/27 05:42:18;;;;;;;5.97;3.85;;;;;;;;;;5095056;28;20028;-49
2021/06/27 05:44:45;;;;;;;8.35;4.30;;;;;;;;;;5088859;28;20039;-49
2021/06/27 05:47:11;;;;;;;7.30;4.32;;;;;;;;;;5087416;28;20028;-50
2021/06/27 05:49:37;;;;;;;6.15;4.20;;;;;;;;;;5088068;28;20686;-48
2021/06/27 05:52:03;;;;;;;7.75;4.10;;;;;;;;;;5089056;28;20039;-49
2021/06/27 05:54:29;;;;;;;4.50;3.45;;;;;;;;;;5086095;28;20036;-49
2021/06/27 05:56:55;;;;;;;4.65;3.72;;;;;;;;;;5069692;28;20112;-49
2021/06/27 05:59:21;;;;;;;6.43;4.22;;;;;;;;;;5088178;28;20031;-49
2021/06/27 06:01:47;;;;;;;7.10;4.40;;;;;;;;;;5085836;28;20024;-49
2021/06/27 06:04:13;;;;;;;6.15;3.88;;;;;;;;;;5086813;28;20017;-50
2021/06/27 06:06:39;;;;;;;4.97;3.42;;;;;;;;;;5093003;28;20024;-49
2021/06/27 06:09:05;;;;;;;4.88;3.63;;;;;;;;;;5092651;28;20040;-53
2021/06/27 06:11:31;;;;;;;4.82;3.53;;;;;;;;;;5093982;28;20484;-49
2021/06/27 06:13:57;;;;;;;6.20;3.00;;;;;;;;;;5089967;28;20066;-49
2021/06/27 06:16:23;;;;;;;4.20;3.30;;;;;;;;;;5082892;28;20522;-50
2021/06/27 06:18:50;;;;;;;7.03;3.50;;;;;;;;;;5089534;28;20020;-49
2021/06/27 06:21:16;;;;;;;4.57;3.28;;;;;;;;;;5086438;28;20012;-49
2021/06/27 06:23:42;;;;;;;6.07;3.60;;;;;;;;;;5089867;28;20069;-49
2021/06/27 06:26:09;;;;;;;5.95;3.58;;;;;;;;;;5088224;28;20111;-50
2021/06/27 06:28:35;;;;;;;4.18;3.17;;;;;;;;;;5093293;28;20115;-50
2021/06/27 06:31:01;;;;;;;7.88;3.45;;;;;;;;;;5084915;28;20484;-51
2021/06/27 06:33:27;;;;;;;6.43;3.78;;;;;;;;;;5093332;28;20032;-50
2021/06/27 06:35:53;;;;;;;4.80;2.85;;;;;;;;;;5086090;28;20032;-49
2021/06/27 06:38:19;;;;;;;6.13;3.50;;;;;;;;;;5087211;28;20032;-51
2021/06/27 06:40:45;;;;;;;5.88;3.13;;;;;;;;;;5086944;28;20027;-50
2021/06/27 06:43:11;;;;;;;4.05;2.88;;;;;;;;;;5086557;28;20024;-55
2021/06/27 06:45:37;;;;;;;3.75;2.90;;;;;;;;;;5090964;28;20024;-49
2021/06/27 06:48:04;;;;;;;5.03;3.42;;;;;;;;;;5086951;28;20028;-50
2021/06/27 06:50:29;;;;;;;8.20;2.92;;;;;;;;;;5088432;28;20036;-49
2021/06/27 06:52:55;;;;;;;4.03;2.83;;;;;;;;;;5092941;28;20031;-49
2021/06/27 06:55:22;;;;;;;4.15;3.08;;;;;;;;;;5093513;28;20556;-49
2021/06/27 06:57:49;;;;;;;5.05;3.50;;;;;;;;;;5090219;28;20074;-52
2021/06/27 07:00:16;;;;;;;3.25;2.75;;;;;;;;;;5084892;28;20027;-51
2021/06/27 07:02:41;;;;;;;5.93;2.60;;;;;;;;;;5088420;28;20120;-49
2021/06/27 07:05:08;;;;;;;4.10;2.97;;;;;;;;;;5079482;28;20029;-51
2021/06/27 07:07:34;;;;;;;4.15;2.65;;;;;;;;;;5079941;28;20024;-50
2021/06/27 07:10:01;;;;;;;4.18;2.60;;;;;;;;;;5093203;28;20402;-51
2021/06/27 07:12:27;;;;;;;8.57;2.50;;;;;;;;;;5086055;28;20051;-49
2021/06/27 07:14:53;;;;;;;5.57;2.60;;;;;;;;;;5091784;28;20363;-50
2021/06/27 07:17:19;;;;;;;6.13;3.20;;;;;;;;;;5088401;28;20035;-51
2021/06/27 07:19:45;;;;;;;3.15;2.63;;;;;;;;;;5078643;28;20452;-50
2021/06/27 07:22:10;;;;;;;4.32;3.05;;;;;;;;;;5086283;28;20055;-49
2021/06/27 07:24:37;;;;;;;3.25;2.63;;;;;;;;;;5090944;28;20024;-49
2021/06/27 07:27:03;;;;;;;3.88;2.63;;;;;;;;;;5089450;28;20028;-49
2021/06/27 07:29:29;;;;;;;3.90;2.42;;;;;;;;;;5092178;28;20682;-50
2021/06/27 07:31:55;;;;;;;4.20;2.40;;;;;;;;;;5088578;28;20097;-50
2021/06/27 07:34:22;;;;;;;4.13;2.83;;;;;;;;;;5083896;28;20035;-50
2021/06/27 07:36:48;;;;;;;3.80;2.45;;;;;;;;;;5083869;28;20028;-49
2021/06/27 07:39:14;;;;;;;4.18;2.60;;;;;;;;;;5084812;28;20484;-50
2021/06/27 07:41:40;;;;;;;3.45;2.30;;;;;;;;;;5084978;28;20399;-49
2021/06/27 07:44:06;;;;;;;4.20;2.97;;;;;;;;;;5091145;28;20032;-50
2021/06/27 07:46:32;;;;;;;3.88;2.88;;;;;;;;;;5090782;28;20442;-50
2021/06/27 07:48:58;;;;;;;4.90;2.47;;;;;;;;;;5090821;28;20127;-49
2021/06/27 07:51:24;;;;;;;6.53;3.15;;;;;;;;;;5067176;28;20114;-51
2021/06/27 07:53:51;;;;;;;3.80;2.58;;;;;;;;;;5091347;28;20063;-50
2021/06/27 07:56:17;;;;;;;4.82;2.75;;;;;;;;;;5084943;28;20035;-51
2021/06/27 07:58:42;;;;;;;6.40;2.65;;;;;;;;;;5090100;28;20032;-49
2021/06/27 08:01:08;;;;;;;3.25;2.17;;;;;;;;;;5089051;28;20031;-52
2021/06/27 08:03:34;;;;;;;4.07;2.50;;;;;;;;;;5090245;28;20031;-53
2021/06/27 08:06:00;;;;;;;3.92;2.30;;;;;;;;;;5091323;28;20024;-49
2021/06/27 08:08:26;;;;;;;4.95;2.70;;;;;;;;;;5085300;28;20031;-49
2021/06/27 08:10:52;;;;;;;2.55;1.92;;;;;;;;;;5091264;28;20035;-51
2021/06/27 08:13:18;;;;;;;3.28;2.33;;;;;;;;;;5090773;28;20062;-49
2021/06/27 08:15:45;;;;;;;4.30;2.13;;;;;;;;;;5079570;28;20087;-51
2021/06/27 08:18:11;;;;;;;3.22;2.25;;;;;;;;;;5089743;28;20131;-51
2021/06/27 08:20:37;;;;;;;2.50;1.67;;;;;;;;;;5081314;28;20122;-50
2021/06/27 08:23:03;;;;;;;3.10;2.13;;;;;;;;;;5086581;28;20397;-51
2021/06/27 08:25:29;;;;;;;4.55;2.65;;;;;;;;;;5081630;28;20024;-50
2021/06/27 08:27:55;;;;;;;3.63;2.28;;;;;;;;;;5084391;28;20165;-50
2021/06/27 08:30:23;;;;;;;4.45;2.17;;;;;;;;;;5080327;28;20114;-51
2021/06/27 08:32:49;;;;;;;2.80;2.30;;;;;;;;;;5083587;28;20035;-50
2021/06/27 08:35:16;;;;;;;3.10;2.00;;;;;;;;;;5076714;28;20031;-50
2021/06/27 08:37:42;;;;;;;4.32;2.25;;;;;;;;;;5080812;28;20045;-51
2021/06/27 08:40:09;;;;;;;3.80;1.80;;;;;;;;;;5086175;28;20459;-51
2021/06/27 08:42:35;;;;;;;2.47;2.00;;;;;;;;;;5086713;28;20020;-50
2021/06/27 08:45:01;;;;;;;5.82;2.30;;;;;;;;;;5081632;28;20102;-50
2021/06/27 08:47:29;;;;;;;4.43;1.70;;;;;;;;;;5091051;28;20028;-50
2021/06/27 08:49:55;;;;;;;3.13;2.03;;;;;;;;;;5087058;28;20501;-53
2021/06/27 08:52:21;;;;;;;3.70;2.00;;;;;;;;;;5090971;28;20035;-52
2021/06/27 08:54:48;;;;;;;2.88;1.75;;;;;;;;;;5083956;28;20070;-50
2021/06/27 08:57:15;;;;;;;3.38;1.90;;;;;;;;;;5080063;28;20104;-51
2021/06/27 08:59:41;;;;;;;2.28;1.70;;;;;;;;;;5077056;28;20036;-49
2021/06/27 09:02:08;;;;;;;3.30;2.25;;;;;;;;;;5079930;28;20131;-49
2021/06/27 09:04:37;;;;;;;5.03;2.10;;;;;;;;;;5084439;28;20415;-51
2021/06/27 09:07:21;;;;;;;2.80;1.92;;;;;;;;;;5080109;28;20020;-50
2021/06/27 09:09:47;;;;;;;4.22;1.83;;;;;;;;;;5084261;28;20119;-50
2021/06/27 09:12:13;;;;;;;4.68;1.77;;;;;;;;;;5088595;28;20031;-50
2021/06/27 09:14:40;;;;;;;7.38;2.08;;;;;;;;;;5077577;28;20075;-49
2021/06/27 09:17:11;;;;;;;2.95;1.90;;;;;;;;;;5083022;28;20034;-50
2021/06/27 09:19:52;;;;;;;2.72;2.08;;;;;;;;;;5086352;28;20077;-50
2021/06/27 09:22:22;;;;;;;2.75;1.90;;;;;;;;;;5080141;28;20023;-51
2021/06/27 09:24:49;;;;;;;3.35;2.00;;;;;;;;;;5082628;28;20460;-52
2021/06/27 09:27:23;;;;;;;2.13;1.42;;;;;;;;;;5083306;28;20623;-52
2021/06/27 09:29:50;;;;;;;1.75;1.30;;;;;;;;;;5085882;28;20028;-50
2021/06/27 09:32:16;;;;;;;2.47;1.60;;;;;;;;;;5090040;28;20032;-52
2021/06/27 09:34:43;;;;;;;2.78;1.88;;;;;;;;;;5072267;28;20103;-57
2021/06/27 09:37:09;;;;;;;3.85;1.70;;;;;;;;;;5082388;28;20502;-50
2021/06/27 09:39:35;;;;;;;2.05;1.58;;;;;;;;;;5084228;28;20039;-51
2021/06/27 09:42:04;;;;;;;2.53;1.50;;;;;;;;;;5081576;28;20021;-49
2021/06/27 09:44:30;;;;;;;1.83;1.45;;;;;;;;;;5086183;28;20021;-50
2021/06/27 09:46:57;;;;;;;3.83;1.70;;;;;;;;;;5083196;28;20491;-49
2021/06/27 09:49:26;;;;;;;2.20;1.70;;;;;;;;;;5078538;28;20467;-52
2021/06/27 09:51:54;;;;;;;2.47;1.50;;;;;;;;;;5089469;28;20439;-49
2021/06/27 09:54:21;;;;;;;2.92;1.65;;;;;;;;;;5093716;28;20395;-52
2021/06/27 09:56:48;;;;;;;1.98;1.60;;;;;;;;;;5085219;28;20089;-50
2021/06/27 09:59:15;;;;;;;4.13;1.73;;;;;;;;;;5093472;28;20077;-49
2021/06/27 10:01:42;;;;;;;3.05;1.63;;;;;;;;;;5086362;28;20492;-50
2021/06/27 10:04:15;;;;;;;3.88;1.80;;;;;;;;;;5080666;28;20051;-49
2021/06/27 10:06:41;;;;;;;;;;;;;;;;;;5091037;28;20363;-51
2021/06/27 10:09:11;;;;;;;2.53;1.65;;;;;;;;;;5089490;28;19946;-49
2021/06/27 10:11:38;;;;;;;4.93;1.90;;;;;;;;;;5091667;28;20024;-56
2021/06/27 10:14:09;;;;;;;2.22;1.80;;;;;;;;;;5087183;28;20058;-52
2021/06/27 10:16:35;;;;;;;2.00;1.58;;;;;;;;;;5089536;28;20035;-50
2021/06/27 10:19:01;;;;;;;2.58;1.60;;;;;;;;;;5073506;28;20044;-52
2021/06/27 10:21:28;;;;;;;3.05;1.90;;;;;;;;;;5093451;28;20097;-49
2021/06/27 10:23:55;;;;;;;1.88;1.23;;;;;;;;;;5079591;28;20089;-51
2021/06/27 10:26:21;;;;;;;2.83;1.50;;;;;;;;;;5073915;28;20131;-50
2021/06/27 10:28:48;;;;;;;1.67;1.50;;;;;;;;;;5094371;28;20020;-50
2021/06/27 10:31:15;;;;;;;2.58;1.45;;;;;;;;;;5092354;28;20433;-51
2021/06/27 10:33:42;;;;;;;2.13;1.60;;;;;;;;;;5082703;28;20375;-51
2021/06/27 10:36:10;;;;;;;1.83;1.52;;;;;;;;;;5090120;28;20024;-51
2021/06/27 10:38:39;;;;;;;2.97;1.65;;;;;;;;;;5083992;28;20033;-52
2021/06/27 10:41:05;;;;;;;1.80;1.40;;;;;;;;;;5081268;28;20044;-51
2021/06/27 10:43:54;;;;;;;5.90;1.63;;;;;;;;;;5080467;28;20027;-53
2021/06/27 10:46:35;;;;;;;2.65;1.50;;;;;;;;;;5067219;28;20383;-51
2021/06/27 10:49:01;;;;;;;2.22;1.70;;;;;;;;;;5086565;28;20028;-50
2021/06/27 10:51:47;;;;;;;2.92;1.90;;;;;;;;;;5083069;28;20479;-54
2021/06/27 10:54:14;;;;;;;2.80;1.83;;;;;;;;;;5086533;28;20021;-50
2021/06/27 10:57:01;;;;;;;2.72;1.67;;;;;;;;;;5081204;28;20035;-52
2021/06/27 10:59:39;;;;;;;3.17;1.85;;;;;;;;;;5089438;28;20028;-51
2021/06/27 11:02:17;;;;;;;2.25;1.40;;;;;;;;;;5083625;28;20027;-52
2021/06/27 11:04:47;;;;;;;3.85;1.85;;;;;;;;;;5091950;28;20028;-52
2021/06/27 11:07:32;;;;;;;1.95;1.52;;;;;;;;;;5082517;28;20583;-52
2021/06/27 11:10:17;;;;;;;3.08;1.58;;;;;;;;;;5080354;28;20033;-51
2021/06/27 11:12:55;;;;;;;2.33;1.67;;;;;;;;;;5085678;28;20099;-50
2021/06/27 11:15:22;;;;;;;2.45;1.35;;;;;;;;;;5086773;28;20088;-53
2021/06/27 11:17:51;;;;;;;1.83;1.30;;;;;;;;;;5076826;28;20024;-50
2021/06/27 11:20:17;;;;;;;2.30;1.35;;;;;;;;;;5074344;28;20073;-54
2021/06/27 11:22:50;;;;;;;1.63;1.10;;;;;;;;;;5089601;28;20132;-49
2021/06/27 11:25:16;;;;;;;;;;;;;;;;;;5075443;28;20576;-50
2021/06/27 11:27:44;;;;;;;1.92;1.45;;;;;;;;;;5090226;28;19911;-50
2021/06/27 11:30:20;;;;;;;3.03;1.80;;;;;;;;;;5093107;28;20131;-52
2021/06/27 11:32:47;;;;;;;2.22;1.60;;;;;;;;;;5084328;28;20024;-56
2021/06/27 11:35:32;;;;;;;1.60;1.40;;;;;;;;;;5089936;28;20074;-53
2021/06/27 11:37:58;;;;;;;4.00;1.52;;;;;;;;;;5081992;28;20037;-49
2021/06/27 11:40:43;;;;;;;2.05;1.30;;;;;;;;;;5092324;28;20195;-54
2021/06/27 11:43:09;;;;;;;2.22;1.40;;;;;;;;;;5089312;28;21084;-52
2021/06/27 11:45:35;;;;;;;4.72;1.30;;;;;;;;;;5089604;28;20131;-50
2021/06/27 11:48:03;;;;;;;2.63;1.60;;;;;;;;;;5082850;28;20032;-50
2021/06/27 11:50:31;;;;;;;2.30;1.58;;;;;;;;;;5090804;28;20035;-50
2021/06/27 11:52:58;;;;;;;1.65;1.17;;;;;;;;;;5092682;28;20035;-50
2021/06/27 11:55:28;;;;;;;1.95;1.30;;;;;;;;;;5091800;28;20066;-53
2021/06/27 11:57:54;;;;;;;3.40;1.70;;;;;;;;;;5073369;28;20062;-50
2021/06/27 12:00:20;;;;;;;2.03;1.42;;;;;;;;;;5091142;28;20056;-52
2021/06/27 12:02:46;;;;;;;1.42;1.23;;;;;;;;;;5090043;28;20418;-54
2021/06/27 12:05:15;;;;;;;3.70;1.30;;;;;;;;;;5090703;28;20059;-50
2021/06/27 12:07:42;;;;;;;2.05;1.33;;;;;;;;;;5092429;28;20118;-52
2021/06/27 12:10:14;;;;;;;1.60;1.33;;;;;;;;;;5091813;28;20098;-51
2021/06/27 12:12:45;;;;;;;1.65;1.17;;;;;;;;;;5087126;28;20033;-54
2021/06/27 12:15:20;;;;;;;1.67;1.20;;;;;;;;;;5092190;28;20134;-51
2021/06/27 12:17:47;;;;;;;1.80;1.30;;;;;;;;;;5087292;28;20078;-51
2021/06/27 12:20:14;;;;;;;2.55;1.30;;;;;;;;;;5091262;28;20039;-55
2021/06/27 12:22:50;;;;;;;1.83;1.30;;;;;;;;;;5088091;28;20898;-51
2021/06/27 12:25:16;;;;;;;2.13;1.40;;;;;;;;;;5086543;28;20518;-49
2021/06/27 12:27:49;;;;;;;1.90;1.35;;;;;;;;;;5091822;28;20107;-51
2021/06/27 12:30:15;;;;;;;2.40;1.13;;;;;;;;;;5088790;28;20052;-52
2021/06/27 12:33:00;;;;;;;1.60;1.25;;;;;;;;;;5090402;28;20099;-50
2021/06/27 12:35:26;;;;;;;4.35;1.55;;;;;;;;;;5090384;28;20028;-51
2021/06/27 12:37:52;;;;;;;1.63;1.10;;;;;;;;;;5079419;28;20091;-51
2021/06/27 12:40:18;;;;;;;4.35;1.42;;;;;;;;;;5088633;28;20048;-53
2021/06/27 12:42:44;;;;;;;2.33;1.50;;;;;;;;;;5087630;28;20024;-50
2021/06/27 12:45:14;;;;;;;1.88;1.20;;;;;;;;;;5068151;28;20367;-52
2021/06/27 12:47:40;;;;;;;2.90;1.42;;;;;;;;;;5083969;28;20039;-51
2021/06/27 12:50:06;;;;;;;2.08;1.52;;;;;;;;;;5086838;28;20016;-51
2021/06/27 12:52:32;;;;;;;11.60;1.95;;;;;;;;;;5085828;28;20060;-50
2021/06/27 12:54:58;;;;;;;2.55;1.88;;;;;;;;;;5086325;28;20039;-51
2021/06/27 12:57:26;;;;;;;2.33;1.63;;;;;;;;;;5090563;28;20032;-51
2021/06/27 12:59:56;;;;;;;2.08;1.40;;;;;;;;;;5088716;28;20016;-52
2021/06/27 13:02:30;;;;;;;2.67;1.52;;;;;;;;;;5088208;28;20376;-49
2021/06/27 13:05:07;;;;;;;1.95;1.23;;;;;;;;;;5091888;28;20029;-51
2021/06/27 13:07:35;;;;;;;1.83;1.40;;;;;;;;;;5091331;28;20036;-55
2021/06/27 13:10:09;;;;;;;1.88;1.40;;;;;;;;;;5091673;28;20028;-52
2021/06/27 13:12:41;;;;;;;1.80;1.23;;;;;;;;;;5088255;28;20086;-52
2021/06/27 13:15:18;;;;;;;2.75;1.58;;;;;;;;;;5084798;28;20032;-50
2021/06/27 13:18:00;;;;;;;1.25;1.02;;;;;;;;;;5094010;28;20052;-54
2021/06/27 13:20:27;;;;;;;1.67;1.25;;;;;;;;;;5086643;28;20052;-50
2021/06/27 13:22:59;;;;;;;1.98;1.48;;;;;;;;;;5095662;28;20107;-50
2021/06/27 13:25:39;;;;;;;1.63;1.42;;;;;;;;;;5092354;28;20539;-52
2021/06/27 13:28:06;;;;;;;2.85;1.40;;;;;;;;;;5095055;28;20360;-53
2021/06/27 13:30:43;;;;;;;2.38;1.20;;;;;;;;;;5091509;28;20127;-53
2021/06/27 13:33:10;;;;;;;1.80;1.23;;;;;;;;;;5084306;28;20025;-50
2021/06/27 13:35:41;;;;;;;2.08;1.30;;;;;;;;;;5078248;28;20445;-51
2021/06/27 13:38:08;;;;;;;2.40;1.13;;;;;;;;;;5092070;28;20446;-50
2021/06/27 13:40:35;;;;;;;1.58;0.90;;;;;;;;;;5089626;28;20414;-52
2021/06/27 13:43:02;;;;;;;1.83;1.42;;;;;;;;;;5093005;28;20025;-53
2021/06/27 13:45:28;;;;;;;2.47;1.20;;;;;;;;;;5087113;28;20035;-54
2021/06/27 13:47:55;;;;;;;1.80;1.00;;;;;;;;;;5088723;28;20024;-49
2021/06/27 13:50:22;;;;;;;2.05;1.15;;;;;;;;;;5091405;28;20035;-48
2021/06/27 13:52:50;;;;;;;1.35;0.90;;;;;;;;;;5085434;28;20040;-50
2021/06/27 13:55:17;;;;;;;1.40;0.90;;;;;;;;;;5083278;28;20123;-48
2021/06/27 13:57:43;;;;;;;1.50;0.90;;;;;;;;;;5076781;28;20060;-50
2021/06/27 14:00:10;;;;;;;1.70;0.88;;;;;;;;;;5078981;28;20364;-52
2021/06/27 14:02:37;;;;;;;1.85;0.95;;;;;;;;;;5078043;28;20048;-50
2021/06/27 14:05:03;;;;;;;2.47;0.90;;;;;;;;;;5079152;28;20028;-52
2021/06/27 14:07:29;;;;;;;1.83;1.30;;;;;;;;;;5075779;28;20063;-50
2021/06/27 14:09:55;;;;;;;1.52;1.20;;;;;;;;;;5079572;28;21475;-53
2021/06/27 14:12:21;;;;;;;1.50;1.00;;;;;;;;;;5076477;28;20040;-52
2021/06/27 14:14:47;;;;;;;2.78;0.95;;;;;;;;;;5086947;28;20028;-51
2021/06/27 14:17:13;;;;;;;2.17;0.90;;;;;;;;;;5078051;28;20046;-51
2021/06/27 14:19:39;;;;;;;1.98;0.95;;;;;;;;;;5078938;28;20024;-52
2021/06/27 14:22:05;;;;;;;1.17;0.60;;;;;;;;;;5077380;28;20021;-55
2021/06/27 14:24:32;;;;;;;0.77;0.65;;;;;;;;;;5079892;28;20426;-51
2021/06/27 14:26:58;;;;;;;2.40;1.00;;;;;;;;;;5075898;28;20137;-49
2021/06/27 14:29:24;;;;;;;1.33;0.95;;;;;;;;;;5077911;28;20043;-48
2021/06/27 14:31:50;;;;;;;1.70;1.10;;;;;;;;;;5077179;28;20100;-52
2021/06/27 14:34:16;;;;;;;2.85;1.15;;;;;;;;;;5079397;28;20032;-49
2021/06/27 14:36:42;;;;;;;1.05;0.90;;;;;;;;;;5079443;28;20102;-51
2021/06/27 14:39:08;;;;;;;1.42;0.98;;;;;;;;;;5081775;28;20047;-51
2021/06/27 14:41:35;;;;;;;1.40;1.00;;;;;;;;;;5076130;28;20029;-49
2021/06/27 14:44:01;;;;;;;1.40;1.20;;;;;;;;;;5080895;28;20032;-52
2021/06/27 14:46:27;;;;;;;1.75;1.00;;;;;;;;;;5080467;28;20028;-50